Data for 10/12/2016

Time Sea-Level Adjusted Pressure Absolute Pressure Temperature Relative Humidity Dew Point   
(mb) (inHg) (mb) (inHg) (C) (F) (%) (C) (F)
00:05 1025 30.27 854 25.22 -5.3 22.5 84 -7.5 18.4
00:10 1025 30.27 854 25.22 -5.2 22.6 84 -7.6 18.4
00:15 1025 30.27 854 25.22 -5.4 22.2 84 -7.7 18.2
00:20 1025 30.27 854 25.22 -5.4 22.3 84 -7.7 18.1
00:25 1025 30.27 854 25.22 -5.4 22.3 84 -7.7 18.2
00:30 1025 30.27 854 25.22 -5.5 22.1 85 -7.7 18.1
00:35 1025 30.27 854 25.22 -5.4 22.2 84 -7.7 18.1
00:40 1025 30.27 854 25.22 -5.3 22.5 84 -7.6 18.3
00:45 1025 30.27 854 25.22 -5.1 22.8 83 -7.6 18.3
00:50 1025 30.27 854 25.22 -5.2 22.6 83 -7.7 18.2
00:55 1025 30.27 854 25.22 -5.2 22.6 83 -7.7 18.2
01:00 1025 30.27 854 25.22 -5.2 22.6 84 -7.6 18.3
01:05 1025 30.27 854 25.22 -5 23 83 -7.5 18.6
01:10 1025 30.27 854 25.22 -4.7 23.5 83 -7.2 19
01:15 1025 30.27 854 25.22 -4.6 23.8 82 -7.2 19.1
01:20 1025 30.27 854 25.22 -4.4 24.1 80 -7.4 18.8
01:25 1025 30.27 854 25.22 -4.7 23.5 79 -7.8 17.9
01:30 1025 30.27 854 25.22 -5.3 22.5 84 -7.6 18.4
01:35 1025 30.27 854 25.22 -5.4 22.3 84 -7.7 18.1
01:40 1025 30.27 854 25.22 -5.5 22.1 85 -7.6 18.4
01:45 1025 30.27 854 25.22 -5.1 22.8 83 -7.7 18.2
01:50 1025 30.27 854 25.22 -5.3 22.4 84 -7.7 18.1
01:55 1025 30.27 854 25.22 -5.7 21.8 85 -7.9 17.9
02:00 1025 30.27 854 25.22 -5.9 21.4 85 -8 17.5
02:05 1025 30.27 854 25.22 -5.8 21.5 84 -8 17.5
02:10 1025 30.27 854 25.22 -5.7 21.8 84 -8 17.7
02:15 1025 30.27 854 25.22 -5.9 21.4 85 -8 17.6
02:20 1025 30.27 854 25.22 -5.8 21.5 86 -7.9 17.8
02:25 1025 30.27 854 25.22 -5.6 21.9 85 -7.8 17.9
02:30 1025 30.27 854 25.22 -5.5 22.1 83 -7.9 17.8
02:35 1025 30.27 854 25.22 -5.8 21.6 85 -7.9 17.7
02:40 1025 30.27 854 25.22 -5.9 21.4 85 -8.1 17.4
02:45 1025 30.27 854 25.22 -6 21.1 85 -8.1 17.3
02:50 1025 30.27 854 25.22 -6 21.3 85 -8.2 17.3
02:55 1025 30.27 854 25.22 -6.1 21 85 -8.2 17.2
03:00 1024 30.24 854 25.22 -6.3 20.7 86 -8.3 17.1
03:05 1024 30.24 854 25.22 -6.3 20.6 86 -8.3 17
03:10 1024 30.24 854 25.22 -6.4 20.5 86 -8.3 17.1
03:15 1024 30.24 854 25.22 -6.2 20.8 86 -8.3 17.1
03:20 1024 30.24 854 25.22 -6.2 20.9 86 -8.2 17.3
03:25 1024 30.24 853 25.19 -6 21.3 84 -8.2 17.2
03:30 1024 30.24 853 25.19 -6.1 21 85 -8.3 17.1
03:35 1024 30.24 853 25.19 -6 21.1 84 -8.4 16.9
03:40 1024 30.24 853 25.19 -6.1 21.1 85 -8.2 17.2
03:45 1024 30.24 853 25.19 -5.4 22.3 84 -7.7 18.1
03:50 1024 30.24 853 25.19 -4.9 23.2 81 -7.6 18.2
03:55 1024 30.24 853 25.19 -4.9 23.2 80 -7.9 17.8
04:00 1024 30.24 853 25.19 -5.3 22.5 81 -8.1 17.4
04:05 1024 30.24 853 25.19 -5.7 21.7 82 -8.4 16.9
04:10 1024 30.24 853 25.19 -6.1 21.1 83 -8.5 16.7
04:15 1024 30.24 853 25.19 -6.1 21.1 83 -8.5 16.7
04:20 1024 30.24 853 25.19 -6 21.2 83 -8.4 16.8
04:25 1024 30.24 853 25.19 -5.6 21.9 82 -8.3 17.1
04:30 1024 30.24 853 25.19 -5.3 22.4 81 -8.1 17.4
04:35 1024 30.24 853 25.19 -5.2 22.6 79 -8.2 17.2
04:40 1024 30.24 853 25.19 -5.2 22.6 80 -8.2 17.2
04:45 1024 30.24 853 25.19 -5.1 22.8 79 -8.2 17.3
04:50 1024 30.24 853 25.19 -4.8 23.3 78 -8.1 17.4
04:55 1024 30.24 853 25.19 -4.4 24.1 76 -8.1 17.5
05:00 1024 30.24 853 25.19 -4.7 23.6 78 -8 17.5
05:05 1024 30.24 853 25.19 -5 23 78 -8.2 17.2
05:10 1024 30.24 853 25.19 -5 23.1 78 -8.3 17.1
05:15 1024 30.24 853 25.19 -4.9 23.2 78 -8.2 17.2
05:20 1024 30.24 853 25.19 -5.2 22.6 79 -8.3 17.1
05:25 1024 30.24 853 25.19 -5.5 22.1 80 -8.4 16.9
05:30 1024 30.24 853 25.19 -5.8 21.5 81 -8.6 16.4
05:35 1024 30.24 853 25.19 -5.9 21.3 82 -8.6 16.5
05:40 1024 30.24 853 25.19 -5.8 21.5 80 -8.7 16.3
05:45 1024 30.24 853 25.19 -5.6 21.9 80 -8.6 16.6
05:50 1024 30.24 853 25.19 -5.7 21.8 79 -8.7 16.3
05:55 1024 30.24 853 25.19 -5.3 22.4 78 -8.6 16.5
06:00 1024 30.24 853 25.19 -5.5 22 79 -8.7 16.4
06:05 1024 30.24 853 25.19 -5.7 21.7 80 -8.6 16.4
06:10 1024 30.24 853 25.19 -5.9 21.4 80 -8.8 16.1
06:15 1024 30.24 853 25.19 -6 21.2 81 -8.7 16.3
06:20 1024 30.24 853 25.19 -6.1 20.9 83 -8.6 16.5
06:25 1024 30.24 853 25.19 -6.2 20.9 82 -8.7 16.4
06:30 1023 30.21 853 25.19 -6.1 21.1 81 -8.7 16.3
06:35 1023 30.21 853 25.19 -6.3 20.7 82 -8.8 16.2
06:40 1023 30.21 853 25.19 -6.3 20.6 81 -9 15.8
06:45 1023 30.21 853 25.19 -6.4 20.5 82 -8.9 15.9
06:50 1024 30.24 853 25.19 -6.3 20.7 81 -9 15.9
06:55 1023 30.21 853 25.19 -6 21.1 80 -9 15.9
07:00 1023 30.21 853 25.19 -5.7 21.7 78 -8.9 16
07:05 1023 30.21 853 25.19 -5.8 21.6 79 -8.9 15.9
07:10 1023 30.21 853 25.19 -5.7 21.7 78 -9 15.8
07:15 1023 30.21 852 25.16 -5.7 21.7 78 -9 15.9
07:20 1023 30.21 852 25.16 -5.5 22.1 78 -8.8 16.2
07:25 1023 30.21 852 25.16 -5.1 22.8 76 -8.6 16.5
07:30 1023 30.21 852 25.16 -4.6 23.7 74 -8.6 16.5
07:35 1023 30.21 852 25.16 -4.1 24.7 72 -8.4 16.9
07:40 1023 30.21 852 25.16 -3.6 25.5 70 -8.3 17
07:45 1023 30.21 852 25.16 -3.1 26.5 68 -8.2 17.2
07:50 1023 30.21 852 25.16 -3.2 26.3 68 -8.3 17.1
07:55 1023 30.21 852 25.16 -3.3 26.1 70 -8 17.6
08:00 1023 30.21 852 25.16 -3.5 25.7 71 -8 17.6
08:05 1023 30.21 852 25.16 -3.5 25.8 70 -8.1 17.4
08:10 1023 30.21 852 25.16 -3 26.6 69 -7.9 17.9
08:15 1023 30.21 852 25.16 -2.7 27.1 68 -7.9 17.9
08:20 1023 30.21 852 25.16 -2 28.3 66 -7.6 18.3
08:25 1023 30.21 852 25.16 -1.1 30.1 63 -7.2 19
08:30 1023 30.21 852 25.16 -0.7 30.8 60 -7.4 18.6
08:35 1023 30.21 852 25.16 -0.6 31 61 -7.1 19.2
08:40 1023 30.21 852 25.16 0.4 32.7 56 -7.3 18.8
08:45 1023 30.21 852 25.16 0.5 32.9 59 -6.5 20.3
08:50 1023 30.21 852 25.16 0.5 33 58 -6.8 19.8
08:55 1023 30.21 852 25.16 0.4 32.7 57 -7.1 19.3
09:00 1023 30.21 852 25.16 0.5 32.9 58 -6.7 19.9
09:05 1023 30.21 852 25.16 0.3 32.5 60 -6.6 20.1
09:10 1023 30.21 852 25.16 0.5 32.8 58 -6.9 19.7
09:15 1023 30.21 852 25.16 0.4 32.8 60 -6.4 20.5
09:20 1023 30.21 852 25.16 0 32.1 63 -6.3 20.7
09:25 1023 30.21 852 25.16 0.2 32.3 63 -6.1 21
09:30 1023 30.21 852 25.16 0.7 33.2 60 -6.3 20.6
09:35 1023 30.21 852 25.16 0.6 33 60 -6.3 20.7
09:40 1023 30.21 852 25.16 0.6 33.2 60 -6.3 20.7
09:45 1023 30.21 852 25.16 0.7 33.2 59 -6.4 20.5
09:50 1023 30.21 852 25.16 0.6 33 59 -6.5 20.3
09:55 1023 30.21 852 25.16 0.7 33.2 59 -6.5 20.4
10:00 1023 30.21 852 25.16 1.5 34.7 59 -5.7 21.7
10:05 1023 30.21 852 25.16 1.7 35 56 -6.2 20.8
10:10 1023 30.21 852 25.16 2.1 35.7 59 -5.1 22.7
10:15 1023 30.21 852 25.16 1.6 34.9 55 -6.5 20.3
10:20 1023 30.21 852 25.16 0.8 33.4 60 -6.2 20.9
10:25 1023 30.21 852 25.16 0.8 33.5 61 -5.8 21.5
10:30 1023 30.21 852 25.16 1.6 34.8 58 -5.8 21.6
10:35 1023 30.21 852 25.16 2.4 36.2 55 -5.7 21.7
10:40 1023 30.21 852 25.16 1.4 34.5 59 -5.9 21.4
10:45 1023 30.21 852 25.16 0.9 33.7 62 -5.6 22
10:50 1023 30.21 852 25.16 1.5 34.7 58 -6 21.3
10:55 1023 30.21 852 25.16 1.9 35.4 60 -5.1 22.9
11:00 1023 30.21 852 25.16 2.2 35.9 52 -6.6 20.2
11:05 1023 30.21 852 25.16 3 37.5 52 -5.9 21.5
11:10 1023 30.21 852 25.16 3.1 37.6 49 -6.6 20.1
11:15 1023 30.21 852 25.16 3.5 38.2 51 -5.9 21.4
11:20 1023 30.21 852 25.16 3.6 38.5 49 -6.1 21
11:25 1023 30.21 852 25.16 3.7 38.7 49 -5.9 21.4
11:30 1023 30.21 852 25.16 3.5 38.4 47 -6.8 19.8
11:35 1023 30.21 852 25.16 3.5 38.2 47 -6.7 20
11:40 1023 30.21 852 25.16 3.5 38.3 47 -6.9 19.6
11:45 1023 30.21 852 25.16 3.4 38.2 47 -6.7 20
11:50 1023 30.21 852 25.16 3.8 38.8 45 -7.2 19.1
11:55 1023 30.21 852 25.16 3.9 39 47 -6.5 20.4
12:00 1023 30.21 852 25.16 3.5 38.3 47 -6.8 19.8
12:05 1023 30.21 852 25.16 3.8 38.8 48 -6.3 20.6
12:10 1023 30.21 852 25.16 3.6 38.5 49 -6.2 20.8
12:15 1023 30.21 852 25.16 3.5 38.3 49 -6.3 20.7
12:20 1023 30.21 852 25.16 3.8 38.8 47 -6.5 20.4
12:25 1023 30.21 852 25.16 4.9 40.9 43 -6.5 20.3
12:30 1023 30.21 852 25.16 4.9 40.9 47 -5.5 22.2
12:35 1022 30.18 852 25.16 4.6 40.2 44 -6.6 20.2
12:40 1022 30.18 852 25.16 5 41 43 -6.6 20.1
12:45 1022 30.18 852 25.16 4.8 40.7 43 -6.7 19.9
12:50 1022 30.18 851 25.13 5.2 41.4 43 -6.5 20.4
12:55 1022 30.18 851 25.13 4.7 40.4 43 -6.8 19.7
13:00 1022 30.18 851 25.13 4.2 39.6 44 -6.8 19.7
13:05 1022 30.18 851 25.13 4.7 40.5 44 -6.4 20.4
13:10 1022 30.18 851 25.13 5.4 41.7 42 -6.5 20.3
13:15 1022 30.18 851 25.13 6.3 43.3 41 -5.9 21.5
13:20 1022 30.18 851 25.13 6.2 43.2 45 -4.9 23.2
13:25 1022 30.18 851 25.13 5.6 42.1 44 -5.7 21.8
13:30 1022 30.18 851 25.13 5.8 42.4 44 -5.4 22.3
13:35 1022 30.18 851 25.13 7 44.6 40 -5.7 21.7
13:40 1022 30.18 851 25.13 7.5 45.5 41 -4.9 23.1
13:45 1022 30.18 851 25.13 7.8 46 37 -5.9 21.5
13:50 1022 30.18 851 25.13 8.1 46.6 37 -5.7 21.8
13:55 1022 30.18 851 25.13 7.8 46.1 36 -6.3 20.6
14:00 1022 30.18 851 25.13 8.1 46.5 37 -5.8 21.5
14:05 1022 30.18 851 25.13 8 46.3 38 -5.5 22.1
14:10 1021 30.15 851 25.13 7.5 45.5 38 -5.9 21.4
14:15 1021 30.15 851 25.13 7.3 45.1 38 -6.2 20.8
14:20 1021 30.15 850 25.1 7.4 45.3 39 -5.6 21.9
14:25 1021 30.15 850 25.1 7.9 46.2 38 -5.6 21.8
14:30 1021 30.15 850 25.1 8.2 46.7 38 -5.5 22.2
14:35 1021 30.15 850 25.1 8.4 47.1 36 -5.9 21.4
14:40 1021 30.15 850 25.1 8.6 47.5 36 -5.6 21.9
14:45 1021 30.15 850 25.1 8.7 47.7 34 -6.1 21
14:50 1021 30.15 850 25.1 9.3 48.7 36 -5 23.1
14:55 1021 30.15 850 25.1 9.2 48.5 35 -5.5 22
15:00 1021 30.15 850 25.1 8.9 47.9 36 -5.5 22.1
15:05 1021 30.15 850 25.1 9.5 49 33 -5.9 21.5
15:10 1021 30.15 850 25.1 10 50 33 -5.7 21.8
15:15 1021 30.15 850 25.1 9.9 49.8 32 -5.8 21.5
15:20 1021 30.15 850 25.1 10 50 34 -5.2 22.7
15:25 1021 30.15 850 25.1 10.3 50.5 32 -5.5 22.1
15:30 1021 30.15 850 25.1 10 50.1 34 -5.2 22.7
15:35 1021 30.15 850 25.1 9.8 49.6 33 -5.6 21.9
15:40 1021 30.15 850 25.1 9.5 49.1 39 -3.8 25.2
15:45 1020 30.12 850 25.1 9.4 48.9 36 -4.8 23.3
15:50 1020 30.12 850 25.1 9.7 49.4 38 -4 24.8
15:55 1020 30.12 850 25.1 9.8 49.6 39 -3.6 25.5
16:00 1020 30.12 850 25.1 9.8 49.7 39 -3.6 25.6
16:05 1020 30.12 850 25.1 9.9 49.9 38 -3.9 25
16:10 1020 30.12 850 25.1 10 50 37 -4 24.8
16:15 1020 30.12 849 25.07 9.7 49.4 37 -4.2 24.5
16:20 1020 30.12 849 25.07 9.3 48.7 38 -4.2 24.5
16:25 1020 30.12 849 25.07 9.3 48.8 38 -4.1 24.7
16:30 1020 30.12 849 25.07 9.1 48.3 39 -4.1 24.6
16:35 1020 30.12 849 25.07 8.8 47.9 39 -4.5 23.9
16:40 1020 30.12 849 25.07 8.8 47.8 40 -4.1 24.6
16:45 1020 30.12 849 25.07 8.9 48.1 40 -4.1 24.7
16:50 1020 30.12 849 25.07 9 48.2 39 -4.2 24.4
16:55 1020 30.12 849 25.07 8.8 47.8 40 -4.2 24.5
17:00 1020 30.12 849 25.07 8.9 48 39 -4.3 24.3
17:05 1020 30.12 849 25.07 8.9 48.1 40 -4.1 24.7
17:10 1020 30.12 849 25.07 8.6 47.4 40 -4.1 24.6
17:15 1020 30.12 849 25.07 8.6 47.4 41 -3.8 25.1
17:20 1020 30.12 849 25.07 8.5 47.3 42 -3.5 25.7
17:25 1020 30.12 849 25.07 8.2 46.7 46 -2.6 27.3
17:30 1020 30.12 849 25.07 7.9 46.3 47 -2.8 27
17:35 1020 30.12 849 25.07 7.3 45.1 50 -2.4 27.8
17:40 1020 30.12 849 25.07 6.3 43.4 52 -2.7 27.2
17:45 1020 30.12 849 25.07 5.8 42.4 53 -3.1 26.5
17:50 1020 30.12 849 25.07 5.5 41.9 52 -3.6 25.5
17:55 1020 30.12 849 25.07 5.5 41.8 52 -3.5 25.7
18:00 1020 30.12 849 25.07 5.4 41.8 52 -3.5 25.7
18:05 1020 30.12 849 25.07 5.4 41.7 52 -3.7 25.4
18:10 1020 30.12 849 25.07 5.3 41.6 53 -3.5 25.7
18:15 1020 30.12 849 25.07 5.1 41.2 57 -2.6 27.3
18:20 1020 30.12 849 25.07 4.6 40.3 58 -2.9 26.7
18:25 1020 30.12 849 25.07 4.4 39.9 59 -2.9 26.8
18:30 1020 30.12 849 25.07 4.2 39.6 63 -2.3 27.9
18:35 1020 30.12 849 25.07 3.7 38.7 66 -2.1 28.2
18:40 1020 30.12 849 25.07 3.6 38.4 67 -2 28.4
18:45 1020 30.12 849 25.07 3.3 38 69 -1.8 28.7
18:50 1020 30.12 849 25.07 3 37.5 73 -1.3 29.7
18:55 1020 30.12 849 25.07 2.9 37.1 74 -1.4 29.5
19:00 1020 30.12 849 25.07 2.6 36.8 72 -1.9 28.5
19:05 1020 30.12 849 25.07 2.6 36.7 71 -2.2 28
19:10 1020 30.12 849 25.07 2.8 37.1 69 -2.2 28
19:15 1020 30.12 849 25.07 2.7 36.8 71 -2 28.4
19:20 1020 30.12 849 25.07 2.6 36.6 72 -2 28.4
19:25 1020 30.12 849 25.07 2.5 36.5 73 -1.9 28.7
19:30 1020 30.12 849 25.07 2.3 36.2 73 -2 28.4
19:35 1020 30.12 849 25.07 2.5 36.5 72 -2.1 28.2
19:40 1020 30.12 849 25.07 2.3 36.1 73 -2.1 28.3
19:45 1020 30.12 849 25.07 2.1 35.8 73 -2.2 28.1
19:50 1020 30.12 849 25.07 2.1 35.8 73 -2.3 27.9
19:55 1020 30.12 849 25.07 2.2 35.9 73 -2.2 28.1
20:00 1020 30.12 849 25.07 1.9 35.4 75 -2.1 28.3
20:05 1020 30.12 849 25.07 1.6 35 75 -2.3 27.9
20:10 1020 30.12 849 25.07 1.6 35 75 -2.3 27.9
20:15 1020 30.12 849 25.07 1.6 34.8 75 -2.3 27.8
20:20 1020 30.12 849 25.07 1.6 34.8 74 -2.7 27.2
20:25 1020 30.12 849 25.07 1.6 34.9 73 -2.7 27.2
20:30 1020 30.12 849 25.07 1.8 35.3 73 -2.5 27.5
20:35 1020 30.12 849 25.07 1.7 35 73 -2.6 27.3
20:40 1020 30.12 849 25.07 1.9 35.3 70 -3 26.6
20:45 1020 30.12 849 25.07 1.9 35.5 72 -2.7 27.2
20:50 1020 30.12 849 25.07 1.6 34.9 74 -2.6 27.2
20:55 1020 30.12 849 25.07 1.4 34.5 74 -2.8 27
21:00 1020 30.12 849 25.07 1.3 34.4 74 -2.9 26.9
21:05 1020 30.12 849 25.07 1.5 34.7 71 -3.2 26.2
21:10 1020 30.12 849 25.07 1.9 35.5 70 -3 26.6
21:15 1020 30.12 849 25.07 2.2 36 68 -3 26.6
21:20 1020 30.12 849 25.07 2.1 35.8 71 -2.7 27.2
21:25 1020 30.12 849 25.07 1.9 35.4 71 -2.8 27
21:30 1020 30.12 849 25.07 2.1 35.8 67 -3.3 26
21:35 1020 30.12 849 25.07 2.2 36 66 -3.5 25.8
21:40 1020 30.12 849 25.07 2.5 36.4 64 -3.6 25.5
21:45 1020 30.12 849 25.07 2.3 36.2 66 -3.3 26.1
21:50 1020 30.12 849 25.07 2.2 35.9 66 -3.5 25.8
21:55 1020 30.12 849 25.07 2 35.6 68 -3.2 26.2
22:00 1020 30.12 849 25.07 1.6 34.9 69 -3.4 25.9
22:05 1020 30.12 849 25.07 1.5 34.7 69 -3.6 25.4
22:10 1020 30.12 849 25.07 1.7 35 68 -3.7 25.4
22:15 1020 30.12 849 25.07 1.9 35.3 66 -3.9 25
22:20 1020 30.12 849 25.07 2.2 35.9 64 -3.8 25.1
22:25 1020 30.12 849 25.07 2.3 36.1 63 -4 24.7
22:30 1020 30.12 849 25.07 2.6 36.6 62 -4 24.7
22:35 1020 30.12 849 25.07 2.6 36.6 60 -4.4 24.1
22:40 1020 30.12 849 25.07 2.6 36.7 63 -3.8 25.2
22:45 1020 30.12 849 25.07 2.2 36 65 -3.8 25.2
22:50 1020 30.12 849 25.07 2 35.6 63 -4.3 24.3
22:55 1020 30.12 849 25.07 2.3 36.1 62 -4.3 24.2
23:00 1020 30.12 849 25.07 2.3 36.1 62 -4.3 24.2
23:05 1020 30.12 849 25.07 2.1 35.8 65 -3.9 25
23:10 1020 30.12 849 25.07 1.8 35.3 63 -4.5 23.9
23:15 1020 30.12 849 25.07 2.2 35.9 60 -4.7 23.5
23:20 1020 30.12 849 25.07 2.4 36.3 59 -4.8 23.4
23:25 1019 30.09 849 25.07 2.5 36.5 58 -4.9 23.1
23:30 1019 30.09 849 25.07 2.9 37.2 53 -5.8 21.5
23:35 1019 30.09 849 25.07 3.7 38.6 51 -5.6 21.9
23:40 1019 30.09 849 25.07 3.8 38.8 50 -5.7 21.8
23:45 1019 30.09 848 25.04 3.8 38.9 53 -5 23.1
23:50 1019 30.09 849 25.07 3.3 37.9 54 -5.2 22.7
23:55 1019 30.09 848 25.04 2.9 37.2 56 -5.1 22.8
24:00 1019 30.09 848 25.04 2.5 36.6 56 -5.3 22.5